createdAt,value
2022-11-03T00:00:12.807Z,2.00
2022-11-03T00:01:17.390Z,1.95
2022-11-03T00:02:23.793Z,1.90
2022-11-03T00:03:27.627Z,2.08
2022-11-03T00:04:34.137Z,2.00
2022-11-03T00:05:54.900Z,1.98
2022-11-03T00:06:57.513Z,1.98
2022-11-03T00:08:07.400Z,2.08
2022-11-03T00:09:11.867Z,2.20
2022-11-03T00:10:13.862Z,2.08
2022-11-03T00:11:16.986Z,2.05
2022-11-03T00:12:19.339Z,2.20
2022-11-03T00:13:23.788Z,1.90
2022-11-03T00:14:26.613Z,2.30
2022-11-03T00:15:29.292Z,1.98
2022-11-03T00:16:32.536Z,2.20
2022-11-03T00:17:37.374Z,2.05
2022-11-03T00:18:39.836Z,2.25
2022-11-03T00:19:45.476Z,2.50
2022-11-03T00:21:00.542Z,1.98
2022-11-03T00:22:03.165Z,2.10
2022-11-03T00:23:08.887Z,2.45
2022-11-03T00:24:12.170Z,1.95
2022-11-03T00:25:14.179Z,2.35
2022-11-03T00:26:33.990Z,2.15
2022-11-03T00:27:39.121Z,2.22
2022-11-03T00:28:43.887Z,2.17
2022-11-03T00:29:45.901Z,2.30
2022-11-03T00:30:50.589Z,2.80
2022-11-03T00:31:53.553Z,2.35
2022-11-03T00:32:58.489Z,2.70
2022-11-03T00:34:05.438Z,2.40
2022-11-03T00:35:09.002Z,2.38
2022-11-03T00:36:16.935Z,2.65
2022-11-03T00:37:19.717Z,2.70
2022-11-03T00:38:21.983Z,2.78
2022-11-03T00:39:24.398Z,2.90
2022-11-03T00:40:31.994Z,2.47
2022-11-03T00:41:36.685Z,2.53
2022-11-03T00:42:40.096Z,2.88
2022-11-03T00:43:42.850Z,2.45
2022-11-03T00:44:46.671Z,2.47
2022-11-03T00:45:56.365Z,2.40
2022-11-03T00:46:59.646Z,2.58
2022-11-03T00:48:20.262Z,2.72
2022-11-03T00:49:22.206Z,2.60
2022-11-03T00:50:26.606Z,2.63
2022-11-03T00:51:35.863Z,2.40
2022-11-03T00:54:10.342Z,2.45
2022-11-03T00:55:17.153Z,2.67
2022-11-03T00:56:30.954Z,2.58
2022-11-03T00:57:32.930Z,2.30
2022-11-03T00:58:36.087Z,2.40
2022-11-03T00:59:38.980Z,2.58
2022-11-03T01:00:43.963Z,2.80
2022-11-03T01:01:47.768Z,2.50
2022-11-03T01:02:52.005Z,2.55
2022-11-03T01:04:15.091Z,3.03
2022-11-03T01:05:35.608Z,2.75
2022-11-03T01:06:50.999Z,2.60
2022-11-03T01:07:55.107Z,2.80
2022-11-03T01:09:00.638Z,2.70
2022-11-03T01:10:04.198Z,2.97
2022-11-03T01:11:31.986Z,2.90
2022-11-03T01:12:34.395Z,2.70
2022-11-03T01:13:39.804Z,2.60
2022-11-03T01:14:47.119Z,2.88
2022-11-03T01:15:50.256Z,2.42
2022-11-03T01:16:56.269Z,2.67
2022-11-03T01:18:02.349Z,2.50
2022-11-03T01:19:05.902Z,3.08
2022-11-03T01:20:09.157Z,2.55
2022-11-03T01:21:20.204Z,2.78
2022-11-03T01:22:24.482Z,2.80
2022-11-03T01:23:30.359Z,2.60
2022-11-03T01:24:34.849Z,2.80
2022-11-03T01:25:39.976Z,2.85
2022-11-03T01:26:41.932Z,2.70
2022-11-03T01:27:45.559Z,2.95
2022-11-03T01:29:01.615Z,2.80
2022-11-03T01:30:04.518Z,2.72
2022-11-03T01:31:22.615Z,3.30
2022-11-03T01:32:25.209Z,2.90
2022-11-03T01:33:27.796Z,2.83
2022-11-03T01:34:36.411Z,3.00
2022-11-03T01:35:38.417Z,2.80
2022-11-03T01:36:43.766Z,2.83
2022-11-03T01:37:45.907Z,2.85
2022-11-03T01:38:52.165Z,2.70
2022-11-03T01:39:54.926Z,2.53
2022-11-03T01:40:57.851Z,2.80
2022-11-03T01:42:01.483Z,2.60
2022-11-03T01:43:21.158Z,2.80
2022-11-03T01:44:50.792Z,3.35
2022-11-03T01:46:07.034Z,3.05
2022-11-03T01:47:29.971Z,3.00
2022-11-03T01:48:37.235Z,3.10
2022-11-03T01:49:50.267Z,3.22
2022-11-03T01:50:54.282Z,2.83
2022-11-03T01:52:10.912Z,3.13
2022-11-03T01:53:14.605Z,2.70
2022-11-03T01:54:21.906Z,3.00
2022-11-03T01:55:28.937Z,2.78
2022-11-03T01:56:34.429Z,2.80
2022-11-03T01:57:49.338Z,2.70
2022-11-03T01:58:55.626Z,2.65
2022-11-03T02:00:00.763Z,2.65
2022-11-03T02:01:05.989Z,2.42
2022-11-03T02:03:27.994Z,2.53
2022-11-03T02:04:33.832Z,2.33
2022-11-03T02:05:37.833Z,2.88
2022-11-03T02:06:40.775Z,2.50
2022-11-03T02:08:06.258Z,2.70
2022-11-03T02:09:11.077Z,2.53
2022-11-03T02:10:15.915Z,2.50
2022-11-03T02:11:39.651Z,2.90
2022-11-03T02:12:44.085Z,2.70
2022-11-03T02:13:47.150Z,2.60
2022-11-03T02:14:58.954Z,3.00
2022-11-03T02:16:03.042Z,2.53
2022-11-03T02:17:12.185Z,2.33
2022-11-03T02:18:20.950Z,3.03
2022-11-03T02:19:31.894Z,3.00
2022-11-03T02:20:34.967Z,2.50
2022-11-03T02:21:55.513Z,2.40
2022-11-03T02:23:12.614Z,2.50
2022-11-03T02:24:35.527Z,2.80
2022-11-03T02:25:42.481Z,2.20
2022-11-03T02:26:53.649Z,2.33
2022-11-03T02:27:55.716Z,2.20
2022-11-03T02:28:59.037Z,2.60
2022-11-03T02:30:01.384Z,2.63
2022-11-03T02:31:08.843Z,2.63
2022-11-03T02:32:23.839Z,2.75
2022-11-03T02:33:38.011Z,2.83
2022-11-03T02:34:46.738Z,2.80
2022-11-03T02:36:17.988Z,2.53
2022-11-03T02:37:25.974Z,2.92
2022-11-03T02:38:31.212Z,2.80
2022-11-03T02:39:39.596Z,2.40
2022-11-03T02:40:58.628Z,2.72
2022-11-03T02:42:05.084Z,2.85
2022-11-03T02:43:10.994Z,3.28
2022-11-03T02:44:17.574Z,2.60
2022-11-03T02:45:22.721Z,3.60
2022-11-03T02:46:29.517Z,3.08
2022-11-03T02:47:35.044Z,2.85
2022-11-03T02:48:40.059Z,2.63
2022-11-03T02:49:50.290Z,3.45
2022-11-03T02:50:56.158Z,2.85
2022-11-03T02:52:02.837Z,3.03
2022-11-03T02:53:06.215Z,3.45
2022-11-03T02:54:30.517Z,3.20
2022-11-03T02:55:51.533Z,2.78
2022-11-03T02:57:15.722Z,2.72
2022-11-03T02:58:29.797Z,2.53
2022-11-03T02:59:48.534Z,3.10
2022-11-03T03:00:50.824Z,2.65
2022-11-03T03:02:12.953Z,2.80
2022-11-03T03:03:40.700Z,2.85
2022-11-03T03:04:49.409Z,2.55
2022-11-03T03:05:57.930Z,2.90
2022-11-03T03:07:06.760Z,2.80
2022-11-03T03:08:11.993Z,2.22
2022-11-03T03:09:26.336Z,2.60
2022-11-03T03:10:34.743Z,2.78
2022-11-03T03:11:41.486Z,2.88
2022-11-03T03:12:48.805Z,2.65
2022-11-03T03:13:51.827Z,2.88
2022-11-03T03:14:57.426Z,2.92
2022-11-03T03:16:17.133Z,2.60
2022-11-03T03:17:34.291Z,2.70
2022-11-03T03:18:56.573Z,2.40
2022-11-03T03:20:31.762Z,2.80
2022-11-03T03:21:42.664Z,2.80
2022-11-03T03:23:11.680Z,2.80
2022-11-03T03:24:32.628Z,2.78
2022-11-03T03:26:04.265Z,2.70
2022-11-03T03:27:11.425Z,2.70
2022-11-03T03:28:26.806Z,3.10
2022-11-03T03:29:46.421Z,2.75
2022-11-03T03:30:49.395Z,2.55
2022-11-03T03:31:57.616Z,2.53
2022-11-03T03:33:04.395Z,2.67
2022-11-03T03:34:23.685Z,2.60
2022-11-03T03:35:42.545Z,2.92
2022-11-03T03:36:48.889Z,3.88
2022-11-03T03:37:55.014Z,2.70
2022-11-03T03:39:01.114Z,2.90
2022-11-03T03:40:09.071Z,2.65
2022-11-03T03:41:23.352Z,2.80
2022-11-03T03:42:30.364Z,2.38
2022-11-03T03:43:35.180Z,2.85
2022-11-03T03:44:40.822Z,2.80
2022-11-03T03:45:47.158Z,2.53
2022-11-03T03:46:55.357Z,2.58
2022-11-03T03:47:58.272Z,2.47
2022-11-03T03:49:03.245Z,2.90
2022-11-03T03:50:08.213Z,2.60
2022-11-03T03:51:13.531Z,2.75
2022-11-03T03:52:16.165Z,2.47
2022-11-03T03:53:20.160Z,2.78
2022-11-03T03:54:22.369Z,2.50
2022-11-03T03:55:43.132Z,2.67
2022-11-03T03:56:58.954Z,2.60
2022-11-03T03:58:04.783Z,2.67
2022-11-03T03:59:07.055Z,2.90
2022-11-03T04:00:13.801Z,2.80
2022-11-03T04:01:16.219Z,2.60
2022-11-03T04:02:18.453Z,2.88
2022-11-03T04:03:25.547Z,2.30
2022-11-03T04:04:29.188Z,2.45
2022-11-03T04:05:31.195Z,3.00
2022-11-03T04:06:33.479Z,2.58
2022-11-03T04:07:47.680Z,2.78
2022-11-03T04:08:50.536Z,2.70
2022-11-03T04:09:52.661Z,2.88
2022-11-03T04:11:13.424Z,2.92
2022-11-03T04:12:35.084Z,2.50
2022-11-03T04:13:58.255Z,2.60
2022-11-03T04:15:19.078Z,2.60
2022-11-03T04:16:43.349Z,2.40
2022-11-03T04:18:08.638Z,2.70
2022-11-03T04:19:32.104Z,2.95
2022-11-03T04:20:53.572Z,2.80
2022-11-03T04:22:26.512Z,2.20
2022-11-03T04:23:28.591Z,2.50
2022-11-03T04:24:35.040Z,2.30
2022-11-03T04:25:38.290Z,2.33
2022-11-03T04:26:40.929Z,2.40
2022-11-03T04:27:42.920Z,2.58
2022-11-03T04:28:54.796Z,2.50
2022-11-03T04:30:07.510Z,2.22
2022-11-03T04:31:20.675Z,2.22
2022-11-03T04:32:28.472Z,2.50
2022-11-03T04:33:35.882Z,2.55
2022-11-03T04:34:38.588Z,2.60
2022-11-03T04:35:41.022Z,2.70
2022-11-03T04:36:48.419Z,2.50
2022-11-03T04:38:43.106Z,2.47
2022-11-03T04:39:46.714Z,2.30
2022-11-03T04:40:59.210Z,2.70
2022-11-03T04:42:24.089Z,2.80
2022-11-03T04:43:38.814Z,2.60
2022-11-03T04:44:41.218Z,2.60
2022-11-03T04:45:46.908Z,2.90
2022-11-03T04:46:49.677Z,2.40
2022-11-03T04:47:54.077Z,2.83
2022-11-03T04:49:00.856Z,2.90
2022-11-03T04:50:07.450Z,2.70
2022-11-03T04:51:22.415Z,2.28
2022-11-03T04:52:37.343Z,2.40
2022-11-03T04:54:01.866Z,2.80
2022-11-03T04:55:11.077Z,2.72
2022-11-03T04:56:18.507Z,2.67
2022-11-03T04:57:20.479Z,2.58
2022-11-03T04:58:26.670Z,2.90
2022-11-03T04:59:32.291Z,2.60
2022-11-03T05:00:34.463Z,2.70
2022-11-03T05:01:38.523Z,2.67
2022-11-03T05:02:40.963Z,2.50
2022-11-03T05:03:46.760Z,3.10
2022-11-03T05:04:49.878Z,3.08
2022-11-03T05:05:55.048Z,2.90
2022-11-03T05:06:57.574Z,2.60
2022-11-03T05:08:01.026Z,3.00
2022-11-03T05:09:11.765Z,2.92
2022-11-03T05:10:20.551Z,2.67
2022-11-03T05:11:31.419Z,3.20
2022-11-03T05:12:34.021Z,2.80
2022-11-03T05:13:36.542Z,3.20
2022-11-03T05:14:47.329Z,3.15
2022-11-03T05:16:00.510Z,3.15
2022-11-03T05:17:18.635Z,2.65
2022-11-03T05:18:25.351Z,2.97
2022-11-03T05:19:37.143Z,2.83
2022-11-03T05:21:06.873Z,3.45
2022-11-03T05:22:25.815Z,7.53
2022-11-03T05:23:37.005Z,3.15
2022-11-03T05:24:39.408Z,2.72
2022-11-03T05:25:45.597Z,3.10
2022-11-03T05:26:50.181Z,2.95
2022-11-03T05:27:54.100Z,2.95
2022-11-03T05:29:02.373Z,3.25
2022-11-03T05:30:04.962Z,3.30
2022-11-03T05:31:22.216Z,3.45
2022-11-03T05:32:31.115Z,3.33
2022-11-03T05:33:36.808Z,3.40
2022-11-03T05:34:52.970Z,3.17
2022-11-03T05:35:57.411Z,3.20
2022-11-03T05:37:06.284Z,3.50
2022-11-03T05:39:38.412Z,3.33
2022-11-03T05:40:41.954Z,3.17
2022-11-03T05:41:45.704Z,3.00
2022-11-03T05:42:52.444Z,3.83
2022-11-03T05:44:34.402Z,3.58
2022-11-03T05:45:38.196Z,3.00
2022-11-03T05:46:40.608Z,3.03
2022-11-03T05:47:43.460Z,3.25
2022-11-03T05:48:49.712Z,3.33
2022-11-03T05:49:56.472Z,3.28
2022-11-03T05:51:29.933Z,3.25
2022-11-03T05:52:31.988Z,3.53
2022-11-03T05:53:39.574Z,3.42
2022-11-03T05:54:43.095Z,3.67
2022-11-03T05:55:45.523Z,3.28
2022-11-03T05:56:48.754Z,3.28
2022-11-03T05:57:51.421Z,3.03
2022-11-03T05:58:58.753Z,2.97
2022-11-03T06:00:29.079Z,3.20
2022-11-03T06:01:39.755Z,3.60
2022-11-03T06:02:44.127Z,3.17
2022-11-03T06:03:47.428Z,4.63
2022-11-03T06:04:49.601Z,3.63
2022-11-03T06:05:54.058Z,3.42
2022-11-03T06:07:15.035Z,3.08
2022-11-03T06:08:27.003Z,3.28
2022-11-03T06:09:36.790Z,4.10
2022-11-03T06:10:53.181Z,3.17
2022-11-03T06:12:00.225Z,3.30
2022-11-03T06:13:39.468Z,3.50
2022-11-03T06:14:45.045Z,3.33
2022-11-03T06:15:49.497Z,3.50
2022-11-03T06:17:06.407Z,3.38
2022-11-03T06:18:33.427Z,3.22
2022-11-03T06:20:08.663Z,3.05
2022-11-03T06:21:50.831Z,3.17
2022-11-03T06:22:57.713Z,3.70
2022-11-03T06:23:59.916Z,3.40
2022-11-03T06:25:21.977Z,3.78
2022-11-03T06:26:30.819Z,3.53
2022-11-03T06:27:47.210Z,5.20
2022-11-03T06:28:50.106Z,3.67
2022-11-03T06:29:59.380Z,4.15
2022-11-03T06:31:03.460Z,4.68
2022-11-03T06:32:14.623Z,4.65
2022-11-03T06:33:23.208Z,4.32
2022-11-03T06:34:31.410Z,3.75
2022-11-03T06:35:36.824Z,3.95
2022-11-03T06:36:42.053Z,4.15
2022-11-03T06:37:47.823Z,3.75
2022-11-03T06:39:18.336Z,3.47
2022-11-03T06:40:25.304Z,3.63
2022-11-03T06:41:33.603Z,3.50
2022-11-03T06:42:36.766Z,4.32
2022-11-03T06:43:42.226Z,3.88
2022-11-03T06:44:50.779Z,4.20
2022-11-03T06:45:59.703Z,4.43
2022-11-03T06:47:15.425Z,3.78
2022-11-03T06:48:24.494Z,3.90
2022-11-03T06:49:32.263Z,4.10
2022-11-03T06:50:38.855Z,3.80
2022-11-03T06:51:48.255Z,3.80
2022-11-03T06:52:55.107Z,3.70
2022-11-03T06:54:00.751Z,3.83
2022-11-03T06:55:12.208Z,3.80
2022-11-03T06:56:26.766Z,3.55
2022-11-03T06:57:33.470Z,3.70
2022-11-03T06:58:38.022Z,3.97
2022-11-03T06:59:41.039Z,4.10
2022-11-03T07:00:48.923Z,3.97
2022-11-03T07:01:56.174Z,4.28
2022-11-03T07:03:11.702Z,3.70
2022-11-03T07:04:17.110Z,4.00
2022-11-03T07:05:25.539Z,4.55
2022-11-03T07:06:32.229Z,4.20
2022-11-03T07:07:37.455Z,3.88
2022-11-03T07:08:43.703Z,3.55
2022-11-03T07:09:45.703Z,3.70
2022-11-03T07:10:58.565Z,4.45
2022-11-03T07:12:01.005Z,4.50
2022-11-03T07:13:27.044Z,4.20
2022-11-03T07:14:32.847Z,4.32
2022-11-03T07:15:40.247Z,4.10
2022-11-03T07:17:17.088Z,4.20
2022-11-03T07:18:26.008Z,4.50
2022-11-03T07:19:41.910Z,3.95
2022-11-03T07:20:44.062Z,3.97
2022-11-03T07:21:55.030Z,3.90
2022-11-03T07:23:03.924Z,4.22
2022-11-03T07:24:47.177Z,5.35
2022-11-03T07:25:59.655Z,4.03
2022-11-03T07:27:20.285Z,3.58
2022-11-03T07:28:27.011Z,3.90
2022-11-03T07:29:31.515Z,3.65
2022-11-03T07:30:37.185Z,3.90
2022-11-03T07:31:41.016Z,4.25
2022-11-03T07:32:50.292Z,4.60
2022-11-03T07:33:59.072Z,4.38
2022-11-03T07:35:41.657Z,5.18
2022-11-03T07:36:56.148Z,4.38
2022-11-03T07:38:03.934Z,4.60
2022-11-03T07:39:11.959Z,4.78
2022-11-03T07:40:25.833Z,4.22
2022-11-03T07:41:34.467Z,4.03
2022-11-03T07:43:48.606Z,3.70
2022-11-03T07:44:52.562Z,4.15
2022-11-03T07:46:05.579Z,4.20
2022-11-03T07:47:16.593Z,4.07
2022-11-03T07:48:26.261Z,3.78
2022-11-03T07:49:31.539Z,3.83
2022-11-03T07:50:34.741Z,3.95
2022-11-03T07:51:43.818Z,3.50
2022-11-03T07:52:49.217Z,5.53
2022-11-03T07:53:57.951Z,4.30
2022-11-03T07:55:03.632Z,3.80
2022-11-03T07:56:26.168Z,3.72
2022-11-03T07:57:32.409Z,3.80
2022-11-03T07:58:43.083Z,3.80
2022-11-03T07:59:50.852Z,3.83
2022-11-03T08:00:59.331Z,4.38
2022-11-03T08:02:40.255Z,3.63
2022-11-03T08:03:50.939Z,4.28
2022-11-03T08:04:54.264Z,4.53
2022-11-03T08:05:56.768Z,4.68
2022-11-03T08:07:01.257Z,4.30
2022-11-03T08:08:03.890Z,4.65
2022-11-03T08:09:07.374Z,5.68
2022-11-03T08:10:10.482Z,4.65
2022-11-03T08:12:22.028Z,4.82
2022-11-03T08:13:24.506Z,4.40
2022-11-03T08:14:28.024Z,4.90
2022-11-03T08:15:34.670Z,4.72
2022-11-03T08:16:38.146Z,4.22
2022-11-03T08:17:41.416Z,4.60
2022-11-03T08:18:43.573Z,4.78
2022-11-03T08:19:46.798Z,4.28
2022-11-03T08:20:50.185Z,3.92
2022-11-03T08:21:52.843Z,4.00
2022-11-03T08:23:24.059Z,4.32
2022-11-03T08:24:19.484Z,5.38
2022-11-03T08:25:22.356Z,3.75
2022-11-03T08:26:26.050Z,4.20
2022-11-03T08:27:28.136Z,4.53
2022-11-03T08:28:31.141Z,4.20
2022-11-03T08:29:33.250Z,3.97
2022-11-03T08:30:35.564Z,4.88
2022-11-03T08:31:38.954Z,4.43
2022-11-03T08:36:04.142Z,4.70
2022-11-03T08:37:13.318Z,4.93
2022-11-03T08:38:31.630Z,5.28
2022-11-03T08:39:36.336Z,5.22
2022-11-03T08:40:52.742Z,4.88
2022-11-03T08:42:40.775Z,6.10
2022-11-03T08:46:42.485Z,6.13
2022-11-03T08:48:52.082Z,7.22
2022-11-03T08:49:55.357Z,6.90
2022-11-03T08:51:31.243Z,7.07
2022-11-03T08:52:58.118Z,7.47
2022-11-03T08:54:36.914Z,7.95
2022-11-03T08:56:22.397Z,7.70
2022-11-03T09:12:26.053Z,4.75
2022-11-03T09:23:01.106Z,6.35
2022-11-03T09:24:11.992Z,6.45
2022-11-03T09:25:38.453Z,6.68
2022-11-03T09:29:19.482Z,6.60
2022-11-03T09:32:58.783Z,4.97
2022-11-03T09:35:23.435Z,4.90
2022-11-03T09:36:30.672Z,5.78
2022-11-03T09:37:52.030Z,5.45
2022-11-03T09:39:27.250Z,5.65
2022-11-03T09:40:31.991Z,6.15
2022-11-03T09:42:10.008Z,5.75
2022-11-03T09:46:44.337Z,5.50
2022-11-03T09:48:06.243Z,4.55
2022-11-03T09:49:27.270Z,5.40
2022-11-03T09:50:32.716Z,5.22
2022-11-03T09:51:45.242Z,5.55
2022-11-03T09:52:57.053Z,6.05
2022-11-03T09:54:04.041Z,6.85
2022-11-03T09:55:13.968Z,6.25
2022-11-03T09:56:22.500Z,7.75
2022-11-03T09:57:31.257Z,8.88
2022-11-03T09:58:34.809Z,8.30
2022-11-03T09:59:37.897Z,8.45
2022-11-03T10:00:41.388Z,8.10
2022-11-03T10:01:46.123Z,7.95
2022-11-03T10:02:50.686Z,8.23
2022-11-03T10:03:55.013Z,8.93
2022-11-03T10:05:06.833Z,7.38
2022-11-03T10:06:15.459Z,7.88
2022-11-03T10:07:17.677Z,7.22
2022-11-03T10:08:36.225Z,7.93
2022-11-03T10:09:45.609Z,7.45
2022-11-03T10:10:48.098Z,7.28
2022-11-03T10:11:53.081Z,7.68
2022-11-03T10:12:56.222Z,8.13
2022-11-03T10:13:59.058Z,8.07
2022-11-03T10:15:01.262Z,7.28
2022-11-03T10:16:08.116Z,6.47
2022-11-03T10:17:15.746Z,7.20
2022-11-03T10:18:19.247Z,7.00
2022-11-03T10:19:21.527Z,7.13
2022-11-03T10:20:24.043Z,6.80
2022-11-03T10:21:29.917Z,6.80
2022-11-03T10:22:32.065Z,6.95
2022-11-03T10:23:34.092Z,6.22
2022-11-03T10:24:36.117Z,6.75
2022-11-03T10:25:41.180Z,7.03
2022-11-03T10:26:49.230Z,7.07
2022-11-03T10:27:51.247Z,7.22
2022-11-03T10:29:04.608Z,7.43
2022-11-03T10:30:09.826Z,7.45
2022-11-03T10:31:21.932Z,7.63
2022-11-03T10:32:31.389Z,9.80
2022-11-03T10:33:41.925Z,8.77
2022-11-03T10:34:45.492Z,7.70
2022-11-03T10:35:48.617Z,6.75
2022-11-03T10:37:11.526Z,7.00
2022-11-03T10:38:31.025Z,7.55
2022-11-03T10:39:33.659Z,7.68
2022-11-03T10:40:52.531Z,6.78
2022-11-03T10:43:01.015Z,7.28
2022-11-03T10:44:06.209Z,7.13
2022-11-03T10:45:18.480Z,6.40
2022-11-03T10:46:36.989Z,6.30
2022-11-03T10:48:00.709Z,6.63
2022-11-03T10:49:16.203Z,6.80
2022-11-03T10:50:26.037Z,13.85
2022-11-03T10:51:29.298Z,6.20
2022-11-03T10:52:32.717Z,6.90
2022-11-03T10:53:34.886Z,7.07
2022-11-03T10:54:38.146Z,6.72
2022-11-03T10:55:40.998Z,7.47
2022-11-03T10:56:44.584Z,6.88
2022-11-03T10:57:51.961Z,7.22
2022-11-03T11:00:01.356Z,8.48
2022-11-03T11:01:06.622Z,8.00
2022-11-03T11:02:32.247Z,8.68
2022-11-03T11:03:39.222Z,8.93
2022-11-03T11:04:41.929Z,9.80
2022-11-03T11:05:45.771Z,8.75
2022-11-03T11:06:48.582Z,8.88
2022-11-03T11:07:55.227Z,9.25
2022-11-03T11:09:02.206Z,9.27
2022-11-03T11:10:26.894Z,9.20
2022-11-03T11:11:29.423Z,8.20
2022-11-03T11:12:31.631Z,9.10
2022-11-03T11:13:33.879Z,9.32
2022-11-03T11:14:39.681Z,9.98
2022-11-03T11:15:47.987Z,9.18
2022-11-03T11:16:55.821Z,10.18
2022-11-03T11:17:58.503Z,9.38
2022-11-03T11:19:01.982Z,9.38
2022-11-03T11:20:22.472Z,10.50
2022-11-03T11:21:29.648Z,10.55
2022-11-03T11:22:34.989Z,10.30
2022-11-03T11:23:37.069Z,10.40
2022-11-03T11:24:44.971Z,10.38
2022-11-03T11:26:16.534Z,10.85
2022-11-03T11:27:41.754Z,11.15
2022-11-03T11:28:46.841Z,11.32
2022-11-03T11:29:48.883Z,10.73
2022-11-03T11:30:53.626Z,11.57
2022-11-03T11:31:55.658Z,11.85
2022-11-03T11:33:22.456Z,12.52
2022-11-03T11:34:24.520Z,12.50
2022-11-03T11:35:26.725Z,12.52
2022-11-03T11:36:28.991Z,11.30
2022-11-03T11:37:34.121Z,11.02
2022-11-03T11:38:46.635Z,11.50
2022-11-03T11:39:48.721Z,10.95
2022-11-03T11:40:51.227Z,10.80
2022-11-03T11:42:23.505Z,11.10
2022-11-03T11:43:27.428Z,10.88
2022-11-03T11:44:54.807Z,10.57
2022-11-03T11:46:34.637Z,11.45
2022-11-03T11:47:49.353Z,10.68
2022-11-03T11:49:02.556Z,10.90
2022-11-03T11:50:07.572Z,10.82
2022-11-03T11:51:12.157Z,10.15
2022-11-03T11:52:19.035Z,10.63
2022-11-03T11:53:26.274Z,10.48
2022-11-03T11:54:33.625Z,11.65
2022-11-03T11:55:41.104Z,11.13
2022-11-03T11:56:44.340Z,10.43
2022-11-03T11:57:46.994Z,11.57
2022-11-03T11:58:53.282Z,11.40
2022-11-03T11:59:56.518Z,11.25
2022-11-03T12:01:01.558Z,11.35
2022-11-03T12:02:16.078Z,10.55
2022-11-03T12:03:25.980Z,9.63
2022-11-03T12:04:31.869Z,10.00
2022-11-03T12:05:36.121Z,10.38
2022-11-03T12:06:40.522Z,9.73
2022-11-03T12:07:42.692Z,9.32
2022-11-03T12:08:44.853Z,9.43
2022-11-03T12:09:47.180Z,9.88
2022-11-03T12:10:54.244Z,10.15
2022-11-03T12:12:07.116Z,9.82
2022-11-03T12:13:47.563Z,9.20
2022-11-03T12:14:49.661Z,9.43
2022-11-03T12:15:56.695Z,9.15
2022-11-03T12:17:20.151Z,9.02
2022-11-03T12:18:38.111Z,7.78
2022-11-03T12:19:46.846Z,7.05
2022-11-03T12:20:51.319Z,8.38
2022-11-03T12:21:54.072Z,8.23
2022-11-03T12:22:56.441Z,7.65
2022-11-03T12:23:58.476Z,7.95
2022-11-03T12:25:08.684Z,8.32
2022-11-03T12:26:39.642Z,7.88
2022-11-03T12:27:43.386Z,8.32
2022-11-03T12:28:47.645Z,8.90
2022-11-03T12:29:49.761Z,8.80
2022-11-03T12:30:52.316Z,8.80
2022-11-03T12:31:54.402Z,8.32
2022-11-03T12:32:57.730Z,8.60
2022-11-03T12:33:59.827Z,8.63
2022-11-03T12:35:06.478Z,8.07
2022-11-03T12:36:09.084Z,8.40
2022-11-03T12:37:11.387Z,8.23
2022-11-03T12:38:13.623Z,7.50
2022-11-03T12:39:15.610Z,7.15
2022-11-03T12:40:17.824Z,7.47
2022-11-03T12:41:22.640Z,7.88
2022-11-03T12:42:25.554Z,8.57
2022-11-03T12:43:27.680Z,9.20
2022-11-03T12:44:29.931Z,8.82
2022-11-03T12:45:32.274Z,9.30
2022-11-03T12:46:34.520Z,9.38
2022-11-03T12:47:38.183Z,8.50
2022-11-03T12:48:44.097Z,8.52
2022-11-03T12:49:46.222Z,8.20
2022-11-03T12:50:48.488Z,8.43
2022-11-03T12:51:50.694Z,8.70
2022-11-03T12:52:53.049Z,8.65
2022-11-03T12:53:55.054Z,8.25
2022-11-03T12:54:57.578Z,7.93
2022-11-03T12:56:01.311Z,8.75
2022-11-03T12:57:05.480Z,7.97
2022-11-03T12:58:08.046Z,8.40
2022-11-03T12:59:12.088Z,8.45
2022-11-03T13:00:15.979Z,7.80
2022-11-03T13:01:18.881Z,8.15
2022-11-03T13:02:22.450Z,7.75
2022-11-03T13:03:26.032Z,8.40
2022-11-03T13:04:28.105Z,8.50
2022-11-03T13:05:30.697Z,8.25
2022-11-03T13:06:33.102Z,9.05
2022-11-03T13:07:36.980Z,7.70
2022-11-03T13:08:41.674Z,8.05
2022-11-03T13:09:43.730Z,8.38
2022-11-03T13:10:45.716Z,7.32
2022-11-03T13:12:05.927Z,9.85
2022-11-03T13:13:08.235Z,7.97
2022-11-03T13:14:11.836Z,8.00
2022-11-03T13:15:16.083Z,8.18
2022-11-03T13:16:20.079Z,7.97
2022-11-03T13:17:31.854Z,8.05
2022-11-03T13:18:37.864Z,7.22
2022-11-03T13:19:40.997Z,7.10
2022-11-03T13:20:46.087Z,7.13
2022-11-03T13:21:48.471Z,6.75
2022-11-03T13:22:50.551Z,7.70
2022-11-03T13:23:53.938Z,7.35
2022-11-03T13:24:55.981Z,7.50
2022-11-03T13:25:58.351Z,7.00
2022-11-03T13:27:00.477Z,6.80
2022-11-03T13:28:04.201Z,7.03
2022-11-03T13:29:08.502Z,6.93
2022-11-03T13:30:12.270Z,7.03
2022-11-03T13:31:14.282Z,7.72
2022-11-03T13:32:21.878Z,7.50
2022-11-03T13:33:24.229Z,6.80
2022-11-03T13:34:27.691Z,7.60
2022-11-03T13:35:32.941Z,6.70
2022-11-03T13:36:48.608Z,6.88
2022-11-03T13:37:51.174Z,6.93
2022-11-03T13:38:53.210Z,7.25
2022-11-03T13:40:05.826Z,7.07
2022-11-03T13:41:12.650Z,6.45
2022-11-03T13:42:14.665Z,6.95
2022-11-03T13:43:16.816Z,6.82
2022-11-03T13:44:21.649Z,6.53
2022-11-03T13:45:26.311Z,6.50
2022-11-03T13:46:28.424Z,7.05
2022-11-03T13:47:41.999Z,6.88
2022-11-03T13:50:18.083Z,7.05
2022-11-03T13:51:25.654Z,6.03
2022-11-03T13:52:28.745Z,8.00
2022-11-03T13:56:22.522Z,6.75
2022-11-03T14:00:14.453Z,6.93
2022-11-03T14:01:18.541Z,6.32
2022-11-03T14:05:18.972Z,6.45
2022-11-03T14:07:52.531Z,6.13
2022-11-03T14:08:57.038Z,6.63
2022-11-03T14:10:03.593Z,6.57
2022-11-03T14:11:30.758Z,6.13
2022-11-03T14:12:38.902Z,6.18
2022-11-03T14:13:43.367Z,6.13
2022-11-03T14:14:45.715Z,6.40
2022-11-03T14:15:49.704Z,7.13
2022-11-03T14:16:51.828Z,6.60
2022-11-03T14:17:56.988Z,6.65
2022-11-03T14:19:10.503Z,7.25
2022-11-03T14:20:16.956Z,6.90
2022-11-03T14:21:19.233Z,7.28
2022-11-03T14:22:26.274Z,6.80
2022-11-03T14:23:28.270Z,7.35
2022-11-03T14:24:31.959Z,6.85
2022-11-03T14:25:37.443Z,9.93
2022-11-03T14:26:47.906Z,6.35
2022-11-03T14:28:09.193Z,7.07
2022-11-03T14:29:25.063Z,6.22
2022-11-03T14:30:27.243Z,7.25
2022-11-03T14:31:39.458Z,6.18
2022-11-03T14:32:42.722Z,6.28
2022-11-03T14:33:44.897Z,6.80
2022-11-03T14:34:48.775Z,6.18
2022-11-03T14:35:50.945Z,6.50
2022-11-03T14:37:04.774Z,6.72
2022-11-03T14:38:09.456Z,6.55
2022-11-03T14:39:11.448Z,6.88
2022-11-03T14:40:33.595Z,6.38
2022-11-03T14:41:54.249Z,6.90
2022-11-03T14:42:57.355Z,6.53
2022-11-03T14:44:01.512Z,6.53
2022-11-03T14:45:04.540Z,7.05
2022-11-03T14:46:06.650Z,6.85
2022-11-03T14:47:11.174Z,6.57
2022-11-03T14:48:17.723Z,6.75
2022-11-03T14:49:21.865Z,6.90
2022-11-03T14:50:24.074Z,7.18
2022-11-03T14:51:30.724Z,7.47
2022-11-03T14:52:35.123Z,6.05
2022-11-03T14:53:38.151Z,6.05
2022-11-03T14:54:43.193Z,6.60
2022-11-03T14:55:45.424Z,6.55
2022-11-03T14:56:51.778Z,6.50
2022-11-03T14:57:54.857Z,6.78
2022-11-03T14:58:59.290Z,6.40
2022-11-03T15:00:07.575Z,6.72
2022-11-03T15:01:11.965Z,6.50
2022-11-03T15:02:14.347Z,6.85
2022-11-03T15:03:16.567Z,6.85
2022-11-03T15:04:19.910Z,6.97
2022-11-03T15:05:40.569Z,6.95
2022-11-03T15:06:45.076Z,7.10
2022-11-03T15:07:51.461Z,7.65
2022-11-03T15:08:56.355Z,6.68
2022-11-03T15:10:05.002Z,13.65
2022-11-03T15:11:08.683Z,14.23
2022-11-03T15:12:11.790Z,6.88
2022-11-03T15:13:13.954Z,7.32
2022-11-03T15:14:16.192Z,6.97
2022-11-03T15:15:18.203Z,7.45
2022-11-03T15:16:20.272Z,6.32
2022-11-03T15:17:22.581Z,6.78
2022-11-03T15:18:25.271Z,7.68
2022-11-03T15:19:27.350Z,11.27
2022-11-03T15:20:30.009Z,11.95
2022-11-03T15:21:32.832Z,11.70
2022-11-03T15:25:33.758Z,11.32
2022-11-03T15:26:38.219Z,8.00
2022-11-03T15:27:40.248Z,7.70
2022-11-03T15:28:42.749Z,8.43
2022-11-03T15:29:45.147Z,8.23
2022-11-03T15:30:48.713Z,6.90
2022-11-03T15:31:50.721Z,7.10
2022-11-03T15:32:52.987Z,6.60
2022-11-03T15:33:55.077Z,6.68
2022-11-03T15:34:57.307Z,7.75
2022-11-03T15:35:59.614Z,6.72
2022-11-03T15:37:01.774Z,6.45
2022-11-03T15:38:04.151Z,6.93
2022-11-03T15:39:06.435Z,7.22
2022-11-03T15:40:16.719Z,7.57
2022-11-03T15:41:19.670Z,7.72
2022-11-03T15:42:23.853Z,7.53
2022-11-03T15:43:26.538Z,7.38
2022-11-03T15:44:28.537Z,8.07
2022-11-03T15:45:30.486Z,8.98
2022-11-03T15:46:33.041Z,7.78
2022-11-03T15:47:37.410Z,8.35
2022-11-03T15:48:39.846Z,7.43
2022-11-03T15:49:41.875Z,7.38
2022-11-03T15:50:43.895Z,6.70
2022-11-03T15:51:47.155Z,6.63
2022-11-03T15:52:49.292Z,7.95
2022-11-03T15:53:58.577Z,6.63
2022-11-03T15:55:06.172Z,7.05
2022-11-03T15:56:08.663Z,7.20
2022-11-03T15:57:10.848Z,6.97
2022-11-03T15:58:13.193Z,6.43
2022-11-03T15:59:15.244Z,6.72
2022-11-03T16:00:21.031Z,6.72
2022-11-03T16:01:23.893Z,7.43
2022-11-03T16:02:41.036Z,6.88
2022-11-03T16:03:44.253Z,6.30
2022-11-03T16:04:47.746Z,6.70
2022-11-03T16:05:50.126Z,6.50
2022-11-03T16:07:08.698Z,6.75
2022-11-03T16:08:11.698Z,6.32
2022-11-03T16:09:14.016Z,7.13
2022-11-03T16:10:16.217Z,6.53
2022-11-03T16:11:18.213Z,8.00